createdAt,value
2023-10-15T00:00:45.345Z,100653.00
2023-10-15T00:04:46.854Z,100649.75
2023-10-15T00:08:48.564Z,100656.22
2023-10-15T00:12:52.563Z,100649.97
2023-10-15T00:16:54.163Z,100663.69
2023-10-15T00:20:55.728Z,100653.72
2023-10-15T00:24:57.207Z,100661.72
2023-10-15T00:28:58.931Z,100674.97
2023-10-15T00:33:08.900Z,100671.34
2023-10-15T00:37:10.634Z,100674.50
2023-10-15T00:41:15.521Z,100671.91
2023-10-15T00:45:19.205Z,100674.09
2023-10-15T00:49:26.014Z,100687.06
2023-10-15T00:53:29.593Z,100684.16
2023-10-15T00:57:43.009Z,100687.41
2023-10-15T01:02:04.618Z,100691.53
2023-10-15T01:06:06.879Z,100694.09
2023-10-15T01:10:09.491Z,100689.34
2023-10-15T01:14:12.145Z,100685.50
2023-10-15T01:18:13.988Z,100679.34
2023-10-15T01:22:21.628Z,100694.84
2023-10-15T01:26:26.636Z,100695.38
2023-10-15T01:30:35.583Z,100699.13
2023-10-15T01:34:38.829Z,100702.59
2023-10-15T01:38:40.534Z,100718.09
2023-10-15T01:42:43.713Z,100714.72
2023-10-15T01:47:03.503Z,100715.53
2023-10-15T01:51:07.857Z,100712.88
2023-10-15T01:55:10.135Z,100706.75
2023-10-15T01:59:12.481Z,100715.28
2023-10-15T02:03:14.238Z,100715.41
2023-10-15T02:07:17.939Z,100722.16
2023-10-15T02:11:22.695Z,100720.94
2023-10-15T02:15:24.655Z,100719.00
2023-10-15T02:19:35.322Z,100729.28
2023-10-15T02:23:36.785Z,100736.25
2023-10-15T02:27:38.273Z,100721.19
2023-10-15T02:31:45.544Z,100734.72
2023-10-15T02:35:48.408Z,100725.28
2023-10-15T02:39:52.735Z,100725.34
2023-10-15T02:43:57.561Z,100725.97
2023-10-15T02:48:11.762Z,100727.44
2023-10-15T02:52:19.665Z,100734.41
2023-10-15T02:56:22.691Z,100725.59
2023-10-15T03:00:30.446Z,100724.47
2023-10-15T03:04:35.510Z,100736.22
2023-10-15T03:08:49.170Z,100749.38
2023-10-15T03:12:51.957Z,100746.94
2023-10-15T03:16:58.082Z,100745.19
2023-10-15T03:21:15.470Z,100747.13
2023-10-15T03:25:17.763Z,100755.09
2023-10-15T03:29:24.583Z,100751.22
2023-10-15T03:33:30.968Z,100750.75
2023-10-15T03:37:33.257Z,100758.81
2023-10-15T03:41:41.106Z,100760.09
2023-10-15T03:45:52.696Z,100755.94
2023-10-15T03:49:56.578Z,100753.78
2023-10-15T03:54:07.719Z,100761.47
2023-10-15T03:58:14.805Z,100769.88
2023-10-15T04:02:24.406Z,100768.06
2023-10-15T04:06:26.180Z,100770.78
2023-10-15T04:10:34.680Z,100765.06
2023-10-15T04:14:36.551Z,100768.91
2023-10-15T04:18:38.621Z,100757.31
2023-10-15T04:22:45.554Z,100764.56
2023-10-15T04:26:49.898Z,100753.34
2023-10-15T04:30:51.657Z,100764.66
2023-10-15T04:34:53.335Z,100769.72
2023-10-15T04:39:12.636Z,100753.25
2023-10-15T04:43:14.524Z,100750.34
2023-10-15T04:47:19.518Z,100759.47
2023-10-15T04:51:23.427Z,100770.97
2023-10-15T04:55:25.142Z,100775.41
2023-10-15T04:59:26.701Z,100764.09
2023-10-15T05:03:28.426Z,100774.88
2023-10-15T05:07:29.995Z,100776.78
2023-10-15T05:11:32.267Z,100770.59
2023-10-15T05:15:34.099Z,100766.25
2023-10-15T05:19:35.597Z,100779.56
2023-10-15T05:23:38.932Z,100780.16
2023-10-15T05:27:40.444Z,100774.25
2023-10-15T05:31:44.766Z,100778.22
2023-10-15T05:35:50.444Z,100789.47
2023-10-15T05:39:51.987Z,100781.94
2023-10-15T05:43:54.810Z,100788.00
2023-10-15T05:47:56.440Z,100788.44
2023-10-15T05:51:58.001Z,100795.56
2023-10-15T05:55:59.620Z,100789.72
2023-10-15T06:00:18.896Z,100783.63
2023-10-15T06:04:20.765Z,100795.13
2023-10-15T06:08:22.212Z,100793.91
2023-10-15T06:12:24.163Z,100792.91
2023-10-15T06:16:25.730Z,100800.41
2023-10-15T06:20:27.269Z,100802.53
2023-10-15T06:24:28.757Z,100807.72
2023-10-15T06:28:30.280Z,100820.88
2023-10-15T06:32:32.574Z,100819.19
2023-10-15T06:36:34.628Z,100842.25
2023-10-15T06:40:39.027Z,100825.19
2023-10-15T06:44:40.552Z,100838.88
2023-10-15T06:48:42.445Z,100849.78
2023-10-15T06:52:44.326Z,100851.84
2023-10-15T06:56:45.922Z,100866.88
2023-10-15T07:00:47.597Z,100864.13
2023-10-15T07:04:49.537Z,100869.25
2023-10-15T07:08:51.745Z,100874.63
2023-10-15T07:12:53.620Z,100870.56
2023-10-15T07:16:55.222Z,100871.44
2023-10-15T07:20:56.801Z,100881.00
2023-10-15T07:24:58.291Z,100881.47
2023-10-15T07:28:59.821Z,100891.66
2023-10-15T07:33:01.497Z,100896.66
2023-10-15T07:37:03.103Z,100902.03
2023-10-15T07:41:07.090Z,100897.38
2023-10-15T07:45:08.886Z,100894.25
2023-10-15T07:49:13.485Z,100904.44
2023-10-15T07:53:15.064Z,100904.84
2023-10-15T07:57:16.615Z,100921.56
2023-10-15T08:01:18.290Z,100932.00
2023-10-15T08:05:22.320Z,100934.09
2023-10-15T08:09:24.041Z,100926.44
2023-10-15T08:13:25.851Z,100940.63
2023-10-15T08:17:28.003Z,100936.63
2023-10-15T08:21:29.712Z,100940.56
2023-10-15T08:25:35.730Z,100925.59
2023-10-15T08:29:37.324Z,100931.44
2023-10-15T08:33:38.881Z,100938.09
2023-10-15T08:37:44.887Z,100945.22
2023-10-15T08:41:47.926Z,100946.81
2023-10-15T08:45:50.136Z,100941.19
2023-10-15T08:49:53.725Z,100936.28
2023-10-15T08:53:58.888Z,100943.41
2023-10-15T08:58:01.225Z,100951.91
2023-10-15T09:02:09.666Z,100948.81
2023-10-15T09:06:11.413Z,100956.91
2023-10-15T09:10:18.062Z,100956.25
2023-10-15T09:14:38.036Z,100950.06
2023-10-15T09:18:39.822Z,100962.00
2023-10-15T09:22:41.468Z,100952.59
2023-10-15T09:26:44.214Z,100962.25
2023-10-15T09:30:47.571Z,100963.56
2023-10-15T09:34:49.605Z,100963.34
2023-10-15T09:38:54.420Z,100964.13
2023-10-15T09:42:56.082Z,100970.06
2023-10-15T09:46:58.841Z,100966.69
2023-10-15T09:51:01.094Z,100972.72
2023-10-15T09:55:03.850Z,100965.53
2023-10-15T09:59:05.706Z,100981.84
2023-10-15T10:03:27.577Z,100994.66
2023-10-15T10:07:56.955Z,100987.84
2023-10-15T10:12:53.000Z,100994.84
2023-10-15T10:16:54.986Z,100997.38
2023-10-15T10:20:57.752Z,100987.88
2023-10-15T10:24:59.531Z,100999.81
2023-10-15T10:29:03.119Z,100999.66
2023-10-15T10:33:05.203Z,100989.53
2023-10-15T10:37:20.709Z,100981.22
2023-10-15T10:41:39.332Z,100997.09
2023-10-15T10:45:52.921Z,101006.38
2023-10-15T10:49:57.730Z,100992.63
2023-10-15T10:53:59.266Z,100991.00
2023-10-15T10:58:05.149Z,100982.41
2023-10-15T11:02:08.280Z,100978.69
2023-10-15T11:06:10.822Z,100980.53
2023-10-15T11:10:12.766Z,100977.84
2023-10-15T11:14:15.721Z,100991.19
2023-10-15T11:18:24.196Z,100979.53
2023-10-15T11:22:27.164Z,100982.88
2023-10-15T11:26:32.198Z,100961.41
2023-10-15T11:30:33.811Z,100949.50
2023-10-15T11:34:36.429Z,100954.97
2023-10-15T11:38:38.285Z,100958.75
2023-10-15T11:42:52.310Z,100970.19
2023-10-15T11:46:56.127Z,100954.09
2023-10-15T11:50:58.950Z,100974.72
2023-10-15T11:55:02.785Z,100949.44
2023-10-15T11:59:05.106Z,100973.53
2023-10-15T12:03:07.230Z,101000.59
2023-10-15T12:07:17.234Z,100999.03
2023-10-15T12:11:19.572Z,101016.22
2023-10-15T12:15:21.422Z,101011.16
2023-10-15T12:19:23.021Z,101013.97
2023-10-15T12:23:25.826Z,101014.41
2023-10-15T12:27:29.629Z,101011.34
2023-10-15T12:31:34.451Z,101018.22
2023-10-15T12:35:36.110Z,101019.72
2023-10-15T12:39:41.985Z,101010.97
2023-10-15T12:43:44.036Z,101024.66
2023-10-15T12:47:45.712Z,101033.09
2023-10-15T12:51:47.725Z,101026.44
2023-10-15T12:55:50.022Z,101031.34
2023-10-15T12:59:51.586Z,101040.88
2023-10-15T13:03:53.496Z,101028.50
2023-10-15T13:07:57.747Z,101038.22
2023-10-15T13:11:59.835Z,101041.97
2023-10-15T13:16:02.704Z,101038.09
2023-10-15T13:20:07.478Z,101035.06
2023-10-15T13:24:09.274Z,101032.53
2023-10-15T13:28:10.729Z,101038.31
2023-10-15T13:32:15.638Z,101050.03
2023-10-15T13:36:17.271Z,101042.44
2023-10-15T13:40:22.532Z,101041.19
2023-10-15T13:44:24.240Z,101046.19
2023-10-15T13:48:25.858Z,101058.13
2023-10-15T13:52:27.471Z,101057.63
2023-10-15T13:56:29.150Z,101067.38
2023-10-15T14:00:32.736Z,101064.63
2023-10-15T14:04:35.225Z,101077.03
2023-10-15T14:08:37.158Z,101068.75
2023-10-15T14:12:48.239Z,101076.97
2023-10-15T14:16:50.317Z,101088.91
2023-10-15T14:20:51.954Z,101078.50
2023-10-15T14:24:54.583Z,101092.78
2023-10-15T14:28:56.095Z,101089.75
2023-10-15T14:32:58.415Z,101099.19
2023-10-15T14:37:01.857Z,101085.22
2023-10-15T14:41:04.173Z,101087.09
2023-10-15T14:45:07.572Z,101090.91
2023-10-15T14:49:09.433Z,101111.16
2023-10-15T14:53:11.977Z,101101.09
2023-10-15T14:57:18.530Z,101102.72
2023-10-15T15:01:20.088Z,101115.38
2023-10-15T15:05:21.709Z,101115.19
2023-10-15T15:09:24.088Z,101114.72
2023-10-15T15:13:25.746Z,101109.50
2023-10-15T15:17:27.857Z,101118.56
2023-10-15T15:21:29.601Z,101112.50
2023-10-15T15:25:32.146Z,101128.34
2023-10-15T15:29:34.030Z,101123.47
2023-10-15T15:33:36.635Z,101125.34
2023-10-15T15:37:38.487Z,101131.28
2023-10-15T15:41:40.019Z,101138.16
2023-10-15T15:45:41.578Z,101142.09
2023-10-15T15:49:43.472Z,101143.47
2023-10-15T15:53:45.038Z,101131.00
2023-10-15T15:57:46.577Z,101144.72
2023-10-15T16:01:48.520Z,101144.59
2023-10-15T16:05:59.637Z,101138.16
2023-10-15T16:10:02.532Z,101161.00
2023-10-15T16:14:04.721Z,101152.88
2023-10-15T16:18:08.111Z,101174.16
2023-10-15T16:22:09.855Z,101185.38
2023-10-15T16:26:11.411Z,101191.19
2023-10-15T16:30:13.402Z,101206.19
2023-10-15T16:34:14.909Z,101207.59
2023-10-15T16:38:16.410Z,101217.19
2023-10-15T16:42:17.945Z,101214.56
2023-10-15T16:46:19.589Z,101208.63
2023-10-15T16:50:21.546Z,101238.03
2023-10-15T16:54:23.189Z,101242.13
2023-10-15T16:58:25.610Z,101232.03
2023-10-15T17:02:29.234Z,101232.50
2023-10-15T17:06:31.835Z,101235.56
2023-10-15T17:10:33.317Z,101251.91
2023-10-15T17:14:35.186Z,101254.41
2023-10-15T17:18:36.914Z,101264.97
2023-10-15T17:22:39.184Z,101267.66
2023-10-15T17:26:40.681Z,101271.31
2023-10-15T17:30:45.131Z,101273.03
2023-10-15T17:34:46.821Z,101271.75
2023-10-15T17:38:48.267Z,101265.41
2023-10-15T17:42:49.908Z,101270.75
2023-10-15T17:46:51.515Z,101276.16
2023-10-15T17:50:57.016Z,101284.81
2023-10-15T17:54:58.610Z,101275.41
2023-10-15T17:59:00.488Z,101282.56
2023-10-15T18:03:02.194Z,101293.88
2023-10-15T18:07:03.813Z,101297.22
2023-10-15T18:11:08.394Z,101299.13
2023-10-15T18:15:12.940Z,101314.81
2023-10-15T18:19:15.244Z,101313.34
2023-10-15T18:23:16.779Z,101325.84
2023-10-15T18:27:18.364Z,101323.06
2023-10-15T18:31:22.502Z,101329.19
2023-10-15T18:35:24.148Z,101324.88
2023-10-15T18:39:25.775Z,101317.44
2023-10-15T18:43:28.016Z,101323.75
2023-10-15T18:47:34.823Z,101342.41
2023-10-15T18:51:38.432Z,101331.47
2023-10-15T18:55:40.287Z,101330.41
2023-10-15T18:59:41.849Z,101329.25
2023-10-15T19:03:43.619Z,101343.84
2023-10-15T19:07:45.685Z,101350.19
2023-10-15T19:11:48.986Z,101351.41
2023-10-15T19:16:00.137Z,101345.72
2023-10-15T19:20:01.796Z,101360.22
2023-10-15T19:24:04.287Z,101363.47
2023-10-15T19:28:05.940Z,101368.47
2023-10-15T19:32:07.410Z,101366.63
2023-10-15T19:36:09.075Z,101376.75
2023-10-15T19:40:11.256Z,101372.88
2023-10-15T19:44:12.697Z,101374.03
2023-10-15T19:48:14.700Z,101392.84
2023-10-15T19:52:18.013Z,101408.97
2023-10-15T19:56:19.628Z,101415.16
2023-10-15T20:00:21.507Z,101412.25
2023-10-15T20:04:23.130Z,101412.75
2023-10-15T20:08:26.492Z,101424.47
2023-10-15T20:12:28.116Z,101435.25
2023-10-15T20:16:30.280Z,101433.47
2023-10-15T20:20:32.021Z,101422.91
2023-10-15T20:24:33.593Z,101422.53
2023-10-15T20:28:35.620Z,101416.25
2023-10-15T20:32:54.092Z,101426.28
2023-10-15T20:36:57.158Z,101438.13
2023-10-15T20:40:59.078Z,101429.41
2023-10-15T20:45:00.716Z,101446.25
2023-10-15T20:49:05.805Z,101445.47
2023-10-15T20:53:07.794Z,101443.16
2023-10-15T20:57:09.780Z,101440.84
2023-10-15T21:01:11.412Z,101456.94
2023-10-15T21:05:13.641Z,101472.03
2023-10-15T21:09:17.636Z,101471.13
2023-10-15T21:13:19.253Z,101468.56
2023-10-15T21:17:21.045Z,101469.34
2023-10-15T21:21:22.763Z,101464.75
2023-10-15T21:25:24.489Z,101466.75
2023-10-15T21:29:26.031Z,101468.41
2023-10-15T21:33:27.594Z,101459.28
2023-10-15T21:37:30.935Z,101461.41
2023-10-15T21:41:32.716Z,101471.78
2023-10-15T21:45:34.338Z,101466.88
2023-10-15T21:49:36.045Z,101473.97
2023-10-15T21:53:37.592Z,101479.78
2023-10-15T21:57:42.669Z,101475.84
2023-10-15T22:01:44.463Z,101479.16
2023-10-15T22:05:46.021Z,101484.94
2023-10-15T22:09:48.829Z,101482.25
2023-10-15T22:13:59.884Z,101468.34
2023-10-15T22:18:04.462Z,101484.72
2023-10-15T22:22:08.296Z,101476.09
2023-10-15T22:26:10.657Z,101465.94
2023-10-15T22:30:19.663Z,101470.63
2023-10-15T22:34:21.483Z,101476.75
2023-10-15T22:38:22.964Z,101479.13
2023-10-15T22:42:24.462Z,101478.00
2023-10-15T22:46:25.935Z,101482.41
2023-10-15T22:50:27.443Z,101496.25
2023-10-15T22:54:29.158Z,101485.72
2023-10-15T22:58:30.938Z,101485.28
2023-10-15T23:02:34.294Z,101484.31
2023-10-15T23:06:35.929Z,101492.16
2023-10-15T23:10:39.078Z,101490.41
2023-10-15T23:14:41.381Z,101489.72
2023-10-15T23:18:45.698Z,101482.97
2023-10-15T23:22:47.331Z,101485.25
2023-10-15T23:26:48.805Z,101491.44
2023-10-15T23:30:52.834Z,101491.47
2023-10-15T23:34:54.365Z,101489.06
2023-10-15T23:38:55.834Z,101493.38
2023-10-15T23:42:57.594Z,101499.50
2023-10-15T23:47:13.004Z,101489.69
2023-10-15T23:51:16.472Z,101491.72
2023-10-15T23:55:18.292Z,101488.13
2023-10-15T23:59:20.132Z,101513.06
